Time;durP1;ratioP1;P1;durP2;ratioP2;P2;SDS_P1;SDS_P2;PMS_P1;PMS_P2;Temp;Humidity;BMP_temperature;BMP_pressure;BME280_temperature;BME280_humidity;BME280_pressure;Samples;Min_cycle;Max_cycle;Signal;HPM_P1;HPM_P2
2022/08/03 00:01:29;;;;;;;4.30;3.27;;;18.20;99.90;;;;;;5088295;28;20467;-59
2022/08/03 00:03:54;;;;;;;4.90;3.40;;;18.20;99.90;;;;;;5087514;28;20483;-60
2022/08/03 00:06:20;;;;;;;4.10;3.30;;;18.20;99.90;;;;;;5078781;28;20166;-60
2022/08/03 00:08:46;;;;;;;5.53;3.73;;;18.20;99.90;;;;;;5086008;28;20549;-60
2022/08/03 00:11:11;;;;;;;3.57;3.27;;;18.10;99.90;;;;;;5082186;28;20270;-60
2022/08/03 00:13:37;;;;;;;4.10;3.70;;;18.10;99.90;;;;;;5083531;28;20182;-60
2022/08/03 00:16:03;;;;;;;3.50;3.23;;;18.10;99.90;;;;;;5081099;28;20181;-59
2022/08/03 00:18:29;;;;;;;4.53;3.83;;;18.10;99.90;;;;;;5083909;28;20178;-59
2022/08/03 00:20:54;;;;;;;4.23;3.83;;;18.00;99.90;;;;;;5087525;28;20447;-59
2022/08/03 00:23:20;;;;;;;9.23;3.73;;;18.00;99.90;;;;;;5084295;28;20269;-59
2022/08/03 00:25:46;;;;;;;4.70;3.60;;;18.00;99.90;;;;;;5070828;28;20173;-60
2022/08/03 00:28:11;;;;;;;4.63;3.83;;;18.00;99.90;;;;;;5082825;28;20166;-58
2022/08/03 00:30:37;;;;;;;3.40;3.10;;;17.90;99.90;;;;;;5081839;28;20190;-59
2022/08/03 00:33:03;;;;;;;4.00;3.40;;;17.90;99.90;;;;;;5086175;28;20186;-58
2022/08/03 00:35:29;;;;;;;4.67;3.77;;;17.90;99.90;;;;;;5083614;28;20174;-60
2022/08/03 00:37:55;;;;;;;4.60;3.57;;;17.90;99.90;;;;;;5089995;28;20184;-60
2022/08/03 00:40:22;;;;;;;8.93;3.23;;;17.80;99.90;;;;;;5081208;28;20436;-58
2022/08/03 00:43:07;;;;;;;4.60;3.70;;;17.80;99.90;;;;;;5084968;28;20471;-59
2022/08/03 00:45:37;;;;;;;5.53;3.80;;;17.80;99.90;;;;;;5085206;28;20571;-60
2022/08/03 00:48:04;;;;;;;4.30;3.80;;;17.70;99.90;;;;;;5086504;28;20428;-60
2022/08/03 00:50:33;;;;;;;9.00;4.37;;;17.70;99.90;;;;;;5087458;28;20555;-59
2022/08/03 00:53:00;;;;;;;5.80;3.90;;;17.70;99.90;;;;;;5082205;28;20450;-59
2022/08/03 00:55:26;;;;;;;5.50;3.80;;;17.60;99.90;;;;;;5080497;28;20428;-59
2022/08/03 00:57:53;;;;;;;4.40;3.60;;;17.60;99.90;;;;;;5085929;28;20439;-59
2022/08/03 01:00:21;;;;;;;3.90;3.50;;;17.60;99.90;;;;;;5089981;28;20219;-58
2022/08/03 01:02:47;;;;;;;4.27;3.77;;;17.50;99.90;;;;;;5087087;28;20481;-58
2022/08/03 01:05:13;;;;;;;5.00;4.37;;;17.50;99.90;;;;;;5082846;28;20424;-59
2022/08/03 01:07:53;;;;;;;3.93;3.63;;;17.50;99.90;;;;;;5089769;28;20231;-58
2022/08/03 01:10:19;;;;;;;5.83;3.93;;;17.40;99.90;;;;;;5080160;28;20435;-57
2022/08/03 01:13:03;;;;;;;6.00;3.97;;;17.40;99.90;;;;;;5086312;28;20422;-58
2022/08/03 01:15:44;;;;;;;4.43;4.00;;;17.40;99.90;;;;;;5089428;28;20177;-58
2022/08/03 01:18:31;;;;;;;8.70;3.87;;;17.30;99.90;;;;;;5072697;28;20428;-60
2022/08/03 01:21:01;;;;;;;6.73;4.10;;;17.30;99.90;;;;;;5075089;28;20517;-58
2022/08/03 01:23:41;;;;;;;3.83;3.53;;;17.30;99.90;;;;;;5080283;28;20483;-59
2022/08/03 01:26:46;;;;;;;4.70;4.27;;;17.30;99.90;;;;;;5084246;28;20428;-58
2022/08/03 01:29:41;;;;;;;6.53;3.67;;;17.30;99.90;;;;;;5083484;28;20442;-59
2022/08/03 01:32:21;;;;;;;4.50;3.73;;;17.30;99.90;;;;;;5081823;28;20855;-59
2022/08/03 01:34:54;;;;;;;4.40;3.60;;;17.20;99.90;;;;;;5077158;28;20988;-59
2022/08/03 01:37:26;;;;;;;8.80;3.20;;;17.20;99.90;;;;;;5089632;28;20410;-59
2022/08/03 01:39:56;;;;;;;4.20;3.80;;;17.20;99.90;;;;;;5077752;28;20470;-60
2022/08/03 01:42:24;;;;;;;4.73;4.20;;;17.20;99.90;;;;;;5083900;28;20431;-58
2022/08/03 01:44:51;;;;;;;9.40;3.60;;;17.20;99.90;;;;;;5081017;28;20407;-59
2022/08/03 01:47:21;;;;;;;4.00;3.60;;;17.10;99.90;;;;;;5088230;28;20518;-58
2022/08/03 01:49:48;;;;;;;5.10;4.20;;;17.10;99.90;;;;;;5085148;28;20423;-58
2022/08/03 01:52:17;;;;;;;4.97;3.40;;;17.10;99.90;;;;;;5073502;28;20455;-58
2022/08/03 01:54:47;;;;;;;5.00;4.50;;;17.10;99.90;;;;;;5084342;28;20474;-59
2022/08/03 01:57:14;;;;;;;6.00;4.77;;;17.00;99.90;;;;;;5077619;28;20446;-58
2022/08/03 01:59:41;;;;;;;4.37;3.53;;;17.00;99.90;;;;;;5083854;28;20433;-58
2022/08/03 02:02:10;;;;;;;4.40;4.00;;;17.00;99.90;;;;;;5078651;28;20513;-59
2022/08/03 02:04:37;;;;;;;6.33;3.90;;;17.00;99.90;;;;;;5086615;28;20463;-59
2022/08/03 02:07:04;;;;;;;8.57;4.00;;;16.90;99.90;;;;;;5086228;28;20786;-59
2022/08/03 02:09:31;;;;;;;8.87;3.97;;;16.90;99.90;;;;;;5080268;28;20456;-59
2022/08/03 02:11:59;;;;;;;5.70;4.87;;;16.90;99.90;;;;;;5086833;28;20447;-59
2022/08/03 02:14:27;;;;;;;8.00;3.93;;;16.80;99.90;;;;;;5086000;28;20427;-59
2022/08/03 02:16:53;;;;;;;5.80;4.40;;;16.80;99.90;;;;;;5083257;28;20480;-59
2022/08/03 02:19:19;;;;;;;5.67;4.77;;;16.80;99.90;;;;;;5083425;28;20931;-59
2022/08/03 02:21:46;;;;;;;5.00;4.50;;;16.80;99.90;;;;;;5087393;28;20426;-58
2022/08/03 02:24:12;;;;;;;6.13;4.47;;;16.70;99.90;;;;;;5085013;28;20520;-58
2022/08/03 02:26:40;;;;;;;4.67;4.27;;;16.70;99.90;;;;;;5087039;28;20436;-59
2022/08/03 02:29:13;;;;;;;6.03;4.47;;;16.70;99.90;;;;;;5089967;28;20248;-58
2022/08/03 02:31:42;;;;;;;4.57;4.03;;;16.70;99.90;;;;;;5069577;28;20447;-59
2022/08/03 02:34:12;;;;;;;4.87;3.77;;;16.70;99.90;;;;;;5081676;28;20416;-59
2022/08/03 02:36:39;;;;;;;6.67;3.90;;;16.60;99.90;;;;;;5085525;28;20432;-58
2022/08/03 02:39:08;;;;;;;4.37;3.97;;;16.60;99.90;;;;;;5084930;28;20418;-59
2022/08/03 02:41:43;;;;;;;9.83;4.80;;;16.60;99.90;;;;;;5086427;28;20431;-58
2022/08/03 02:44:11;;;;;;;4.50;4.10;;;16.60;99.90;;;;;;5092244;28;20778;-58
2022/08/03 02:46:41;;;;;;;8.70;4.50;;;16.50;99.90;;;;;;5078803;28;20455;-58
2022/08/03 02:49:09;;;;;;;6.10;4.30;;;16.50;99.90;;;;;;5072878;28;20401;-58
2022/08/03 02:51:38;;;;;;;6.50;4.60;;;16.50;99.90;;;;;;5077486;28;20448;-59
2022/08/03 02:54:05;;;;;;;5.27;4.20;;;16.50;99.90;;;;;;5088963;28;20522;-59
2022/08/03 02:56:31;;;;;;;5.30;4.80;;;16.50;99.90;;;;;;5092385;28;20423;-59
2022/08/03 02:58:59;;;;;;;5.43;4.57;;;16.40;99.90;;;;;;5093600;28;20403;-59
2022/08/03 03:01:27;;;;;;;6.30;5.03;;;16.40;99.90;;;;;;5083171;28;20463;-59
2022/08/03 03:03:56;;;;;;;5.50;4.80;;;16.40;99.90;;;;;;5091474;28;20443;-59
2022/08/03 03:06:23;;;;;;;5.40;4.70;;;16.30;99.90;;;;;;5085491;28;20473;-60
2022/08/03 03:08:51;;;;;;;6.47;5.20;;;16.30;99.90;;;;;;5079698;28;20508;-59
2022/08/03 03:11:20;;;;;;;5.90;5.20;;;16.30;99.90;;;;;;5080334;28;20447;-59
2022/08/03 03:13:48;;;;;;;7.20;4.90;;;16.30;99.90;;;;;;5082953;28;20431;-59
2022/08/03 03:16:14;;;;;;;7.73;4.70;;;16.30;99.90;;;;;;5087005;28;21061;-59
2022/08/03 03:18:43;;;;;;;6.23;5.40;;;16.20;99.90;;;;;;5076373;28;20432;-58
2022/08/03 03:21:09;;;;;;;5.30;4.80;;;16.20;99.90;;;;;;5082334;28;20447;-59
2022/08/03 03:23:40;;;;;;;5.83;5.33;;;16.20;99.90;;;;;;5089053;28;20457;-59
2022/08/03 03:26:06;;;;;;;5.37;4.87;;;16.20;99.90;;;;;;5089727;28;20420;-59
2022/08/03 03:28:35;;;;;;;5.60;5.00;;;16.20;99.90;;;;;;5091675;28;20431;-59
2022/08/03 03:31:03;;;;;;;7.87;5.93;;;16.20;99.90;;;;;;5081064;28;20447;-59
2022/08/03 03:33:28;;;;;;;7.90;5.77;;;16.20;99.90;;;;;;5084876;28;20427;-59
2022/08/03 03:35:56;;;;;;;5.57;5.07;;;16.20;99.90;;;;;;5073612;28;20913;-59
2022/08/03 03:38:22;;;;;;;7.40;6.37;;;16.20;99.90;;;;;;5094903;28;20181;-59
2022/08/03 03:40:47;;;;;;;6.17;5.57;;;16.20;99.90;;;;;;5090888;28;20962;-59
2022/08/03 03:43:13;;;;;;;6.50;5.90;;;16.20;99.90;;;;;;5076445;28;20190;-58
2022/08/03 03:45:42;;;;;;;6.83;5.17;;;16.10;99.90;;;;;;5073258;28;20216;-57
2022/08/03 03:48:08;;;;;;;7.70;5.10;;;16.10;99.90;;;;;;5075668;28;20185;-59
2022/08/03 03:50:36;;;;;;;5.73;5.17;;;16.10;99.90;;;;;;5080483;28;20440;-59
2022/08/03 03:53:03;;;;;;;5.73;4.87;;;16.10;99.90;;;;;;5069687;28;20489;-60
2022/08/03 03:55:29;;;;;;;5.50;4.93;;;16.10;99.90;;;;;;5072354;28;20432;-59
2022/08/03 03:57:55;;;;;;;7.43;5.37;;;16.00;99.90;;;;;;5075798;28;20444;-60
2022/08/03 04:00:22;;;;;;;6.50;4.97;;;16.00;99.90;;;;;;5071521;28;20470;-60
2022/08/03 04:02:47;;;;;;;5.60;4.80;;;16.00;99.90;;;;;;5074656;28;20812;-59
2022/08/03 04:11:01;;;;;;;6.07;4.63;;;16.00;99.90;;;;;;5091994;28;20948;-60
2022/08/03 04:13:35;;;;;;;6.83;4.13;;;16.00;99.90;;;;;;5088110;28;20422;-60
2022/08/03 04:16:03;;;;;;;5.10;4.50;;;16.00;99.90;;;;;;5075449;28;20436;-59
2022/08/03 04:18:31;;;;;;;5.33;4.27;;;16.00;99.90;;;;;;5071363;28;20413;-60
2022/08/03 04:21:02;;;;;;;5.13;4.63;;;16.00;99.90;;;;;;5080206;28;20996;-60
2022/08/03 04:23:31;;;;;;;5.00;4.50;;;15.90;99.90;;;;;;5083576;28;20506;-60
2022/08/03 04:26:00;;;;;;;6.93;4.60;;;15.90;99.90;;;;;;5090369;28;20408;-60
2022/08/03 04:28:27;;;;;;;7.40;4.53;;;15.90;99.90;;;;;;5088112;28;20432;-60
2022/08/03 04:30:54;;;;;;;7.10;5.10;;;15.90;99.90;;;;;;5090080;28;20424;-60
2022/08/03 04:33:23;;;;;;;8.07;5.60;;;15.90;99.90;;;;;;5088359;28;20429;-61
2022/08/03 04:35:52;;;;;;;6.90;5.20;;;15.90;99.90;;;;;;5071079;28;20436;-61
2022/08/03 04:38:18;;;;;;;5.93;5.40;;;15.90;99.90;;;;;;5086003;28;21168;-58
2022/08/03 04:40:46;;;;;;;7.60;5.53;;;15.90;99.90;;;;;;5072101;28;20467;-60
2022/08/03 04:43:15;;;;;;;8.40;5.27;;;15.90;99.90;;;;;;5086193;28;20539;-61
2022/08/03 04:45:42;;;;;;;8.60;5.67;;;15.90;99.90;;;;;;5077894;28;20428;-61
2022/08/03 04:48:08;;;;;;;7.13;5.40;;;15.90;99.90;;;;;;5085934;28;20437;-61
2022/08/03 04:50:35;;;;;;;6.80;5.50;;;16.00;99.90;;;;;;5082367;28;20819;-62
2022/08/03 04:53:01;;;;;;;7.47;5.80;;;16.00;99.90;;;;;;5071109;28;20447;-61
2022/08/03 04:55:31;;;;;;;8.40;5.90;;;16.00;99.90;;;;;;5083013;28;20427;-61
2022/08/03 04:57:58;;;;;;;6.90;5.70;;;16.10;99.90;;;;;;5076834;28;20174;-61
2022/08/03 05:00:24;;;;;;;8.50;6.50;;;16.10;99.90;;;;;;5075538;28;20432;-62
2022/08/03 05:02:52;;;;;;;5.83;5.23;;;16.10;99.90;;;;;;5089353;28;20451;-61
2022/08/03 05:05:18;;;;;;;10.73;6.20;;;16.20;99.90;;;;;;5079931;28;20428;-60
2022/08/03 05:07:43;;;;;;;6.60;5.73;;;16.20;99.90;;;;;;5085723;28;20831;-61
2022/08/03 05:10:11;;;;;;;9.20;5.97;;;16.30;99.90;;;;;;5085528;28;20215;-60
2022/08/03 05:12:37;;;;;;;7.43;5.87;;;16.40;99.90;;;;;;5083622;28;20163;-61
2022/08/03 05:15:03;;;;;;;6.70;5.97;;;16.50;99.90;;;;;;5076417;28;20437;-61
2022/08/03 05:17:29;;;;;;;8.10;5.83;;;16.60;99.90;;;;;;5084750;28;20423;-61
2022/08/03 05:19:55;;;;;;;8.83;5.33;;;16.60;99.90;;;;;;5082932;28;20412;-61
2022/08/03 05:22:21;;;;;;;7.20;5.77;;;16.70;99.90;;;;;;5088483;28;20272;-61
2022/08/03 05:24:47;;;;;;;6.80;5.40;;;16.70;99.90;;;;;;5079757;28;20455;-61
2022/08/03 05:27:18;;;;;;;10.50;5.37;;;16.70;99.90;;;;;;5090013;28;20422;-61
2022/08/03 05:29:44;;;;;;;5.70;4.80;;;16.80;99.90;;;;;;5085144;28;20173;-61
2022/08/03 05:32:10;;;;;;;5.77;5.07;;;16.90;99.90;;;;;;5088163;28;20478;-61
2022/08/03 05:34:35;;;;;;;7.00;5.20;;;16.90;99.90;;;;;;5076648;28;20423;-61
2022/08/03 05:37:01;;;;;;;10.40;5.60;;;17.00;99.90;;;;;;5085613;28;20181;-62
2022/08/03 05:39:26;;;;;;;7.20;5.00;;;17.00;99.90;;;;;;5087067;28;20640;-61
2022/08/03 05:41:52;;;;;;;5.67;5.07;;;17.10;99.90;;;;;;5083538;28;20205;-61
2022/08/03 05:44:17;;;;;;;9.57;5.67;;;17.10;99.90;;;;;;5083117;28;20213;-62
2022/08/03 05:46:43;;;;;;;8.13;5.60;;;17.30;99.90;;;;;;5078285;28;20747;-62
2022/08/03 05:49:09;;;;;;;6.40;5.37;;;17.30;99.90;;;;;;5075822;28;20189;-61
2022/08/03 05:51:35;;;;;;;6.50;5.00;;;17.40;99.90;;;;;;5074354;28;20228;-61
2022/08/03 05:54:01;;;;;;;10.70;4.30;;;17.40;99.90;;;;;;5081704;28;20698;-61
2022/08/03 05:56:27;;;;;;;5.90;5.27;;;17.50;99.90;;;;;;5076243;28;20538;-61
2022/08/03 05:58:53;;;;;;;5.53;4.33;;;17.50;99.90;;;;;;5075025;28;20433;-61
2022/08/03 06:01:22;;;;;;;5.97;4.97;;;17.60;99.90;;;;;;5072106;28;20206;-61
2022/08/03 06:03:49;;;;;;;8.40;4.40;;;17.70;99.90;;;;;;5088010;28;20212;-60
2022/08/03 06:06:15;;;;;;;5.93;5.33;;;17.80;99.90;;;;;;5079672;28;20438;-61
2022/08/03 06:08:42;;;;;;;9.93;4.80;;;17.90;99.90;;;;;;5088877;28;20495;-60
2022/08/03 06:11:08;;;;;;;5.40;4.53;;;18.00;99.90;;;;;;5083523;28;20284;-61
2022/08/03 06:13:34;;;;;;;5.33;4.67;;;18.10;99.90;;;;;;5084958;28;20511;-61
2022/08/03 06:16:00;;;;;;;6.17;4.27;;;18.20;99.90;;;;;;5083299;28;20423;-61
2022/08/03 06:18:26;;;;;;;14.70;4.37;;;18.30;99.90;;;;;;5091828;28;20438;-60
2022/08/03 06:20:52;;;;;;;6.13;4.10;;;18.30;99.90;;;;;;5074624;28;22670;-60
2022/08/03 06:23:18;;;;;;;6.03;4.60;;;18.40;99.90;;;;;;5073750;28;20682;-60
2022/08/03 06:25:44;;;;;;;4.93;3.33;;;18.50;99.90;;;;;;5088685;28;20431;-61
2022/08/03 06:28:09;;;;;;;7.57;3.83;;;18.60;99.90;;;;;;5095387;28;20201;-60
2022/08/03 06:30:35;;;;;;;4.23;3.83;;;18.70;99.90;;;;;;5092800;28;20197;-61
2022/08/03 06:33:01;;;;;;;5.80;3.60;;;18.80;99.90;;;;;;5075704;28;20182;-54
2022/08/03 06:35:27;;;;;;;4.93;3.53;;;18.90;99.90;;;;;;5079625;28;20183;-53
2022/08/03 06:37:53;;;;;;;6.30;3.67;;;19.00;99.90;;;;;;5092812;28;20492;-60
2022/08/03 06:40:28;;;;;;;6.53;3.60;;;19.10;99.90;;;;;;5083769;28;20189;-60
2022/08/03 06:42:55;;;;;;;5.50;3.77;;;19.20;99.90;;;;;;5088294;28;20521;-60
2022/08/03 06:45:21;;;;;;;4.70;3.83;;;19.30;99.90;;;;;;5078916;28;20943;-59
2022/08/03 06:47:47;;;;;;;3.80;3.40;;;19.40;99.90;;;;;;5077738;28;20511;-61
2022/08/03 06:50:12;;;;;;;4.37;3.97;;;19.50;99.90;;;;;;5085341;28;20170;-60
2022/08/03 06:52:38;;;;;;;4.73;3.63;;;19.60;99.90;;;;;;5075967;28;20186;-61
2022/08/03 06:55:04;;;;;;;4.40;3.80;;;19.70;99.90;;;;;;5089164;28;20201;-60
2022/08/03 06:57:30;;;;;;;10.03;4.17;;;19.80;99.90;;;;;;5082582;28;20174;-60
2022/08/03 07:00:00;;;;;;;6.90;3.60;;;19.90;99.90;;;;;;5092827;28;20419;-59
2022/08/03 07:02:27;;;;;;;3.83;3.23;;;20.00;99.90;;;;;;5078610;28;20730;-60
2022/08/03 07:04:52;;;;;;;4.83;3.60;;;20.20;99.90;;;;;;5086419;28;20978;-60
2022/08/03 07:07:19;;;;;;;3.10;2.80;;;20.30;98.50;;;;;;5080003;28;20477;-60
2022/08/03 07:09:46;;;;;;;5.77;3.53;;;20.40;97.80;;;;;;5086787;28;20170;-60
2022/08/03 07:12:12;;;;;;;3.57;3.27;;;20.60;97.10;;;;;;5088566;28;20830;-59
2022/08/03 07:14:38;;;;;;;3.87;3.07;;;20.70;96.30;;;;;;5088108;28;20439;-60
2022/08/03 07:17:03;;;;;;;13.50;4.47;;;20.90;95.10;;;;;;5080589;28;20635;-60
2022/08/03 07:19:29;;;;;;;4.20;3.80;;;21.00;94.50;;;;;;5090328;28;20173;-60
2022/08/03 07:21:55;;;;;;;3.60;2.93;;;21.10;93.10;;;;;;5084038;28;20250;-59
2022/08/03 07:24:20;;;;;;;3.53;3.23;;;21.20;92.90;;;;;;5076029;28;20205;-60
2022/08/03 07:26:46;;;;;;;5.33;3.30;;;21.30;92.40;;;;;;5093870;28;20208;-60
2022/08/03 07:29:12;;;;;;;5.03;3.50;;;21.50;91.90;;;;;;5090324;28;20177;-60
2022/08/03 07:31:38;;;;;;;7.00;2.77;;;21.60;91.60;;;;;;5078311;28;20202;-57
2022/08/03 07:34:05;;;;;;;3.33;3.00;;;21.70;91.10;;;;;;5087148;28;20242;-58
2022/08/03 07:36:31;;;;;;;3.80;3.27;;;21.90;90.20;;;;;;5090631;28;20511;-58
2022/08/03 07:38:57;;;;;;;4.20;3.20;;;22.00;88.10;;;;;;5082445;28;21058;-61
2022/08/03 07:41:23;;;;;;;3.53;3.23;;;22.20;85.60;;;;;;5080633;28;20198;-62
2022/08/03 07:43:49;;;;;;;5.93;4.60;;;22.30;84.30;;;;;;5078927;28;20548;-61
2022/08/03 07:46:14;;;;;;;3.67;3.23;;;22.50;80.30;;;;;;5074362;28;20461;-60
2022/08/03 07:48:40;;;;;;;3.97;3.03;;;22.60;77.60;;;;;;5077901;28;20186;-60
2022/08/03 07:51:06;;;;;;;2.63;2.43;;;22.70;78.40;;;;;;5082633;28;20197;-60
2022/08/03 07:53:32;;;;;;;3.57;2.77;;;22.80;77.30;;;;;;5078852;28;20562;-60
2022/08/03 07:55:57;;;;;;;2.93;2.60;;;22.90;74.90;;;;;;5079471;28;20261;-60
2022/08/03 07:58:23;;;;;;;2.50;2.30;;;23.10;74.80;;;;;;5074094;28;20312;-57
2022/08/03 08:00:51;;;;;;;4.47;2.70;;;23.20;73.60;;;;;;5083818;28;20206;-56
2022/08/03 08:03:17;;;;;;;2.80;2.60;;;23.30;72.10;;;;;;5078685;28;20204;-60
2022/08/03 08:05:43;;;;;;;5.70;2.80;;;23.40;70.10;;;;;;5067683;28;21067;-60
2022/08/03 08:08:09;;;;;;;5.53;2.70;;;23.50;69.90;;;;;;5080603;28;20426;-61
2022/08/03 08:10:35;;;;;;;5.23;2.47;;;23.60;69.20;;;;;;5075663;28;20259;-61
2022/08/03 08:13:02;;;;;;;4.37;2.50;;;23.80;67.70;;;;;;5071876;28;20182;-61
2022/08/03 08:15:28;;;;;;;2.33;2.10;;;23.90;66.50;;;;;;5078896;28;20464;-60
2022/08/03 08:17:56;;;;;;;3.20;2.90;;;24.00;65.10;;;;;;5075999;28;20520;-61
2022/08/03 08:20:28;;;;;;;5.03;2.30;;;24.10;64.20;;;;;;5075011;28;20182;-60
2022/08/03 08:23:01;;;;;;;1.80;1.70;;;24.20;63.60;;;;;;5080107;28;20443;-61
2022/08/03 08:25:28;;;;;;;2.53;1.80;;;24.40;61.80;;;;;;5073716;28;20436;-61
2022/08/03 08:27:54;;;;;;;7.53;2.60;;;24.50;61.00;;;;;;5079463;28;20432;-61
2022/08/03 08:30:21;;;;;;;1.80;1.70;;;24.70;60.20;;;;;;5078595;28;20940;-60
2022/08/03 08:32:50;;;;;;;4.50;2.23;;;24.80;58.70;;;;;;5075633;28;20170;-61
2022/08/03 08:35:17;;;;;;;1.80;1.70;;;24.90;57.30;;;;;;5075408;28;20793;-61
2022/08/03 08:37:43;;;;;;;5.80;2.33;;;25.00;55.50;;;;;;5073768;28;20891;-61
2022/08/03 08:40:09;;;;;;;4.60;2.13;;;25.10;54.90;;;;;;5076418;28;20431;-60
2022/08/03 08:42:42;;;;;;;2.70;2.20;;;25.20;55.10;;;;;;5077758;28;20440;-60
2022/08/03 08:45:10;;;;;;;2.37;2.17;;;25.40;54.00;;;;;;5079986;28;20432;-60
2022/08/03 08:47:38;;;;;;;2.63;1.80;;;25.50;52.30;;;;;;5073730;28;20457;-60
2022/08/03 08:50:06;;;;;;;3.50;2.07;;;25.50;51.00;;;;;;5075070;28;20939;-60
2022/08/03 08:52:34;;;;;;;2.43;2.13;;;25.70;50.70;;;;;;5069374;28;20448;-59
2022/08/03 08:55:03;;;;;;;3.83;2.10;;;25.90;50.40;;;;;;5073077;28;20435;-60
2022/08/03 08:57:36;;;;;;;3.03;2.20;;;26.10;49.80;;;;;;5078079;28;20774;-61
2022/08/03 09:00:09;;;;;;;3.60;1.80;;;26.20;49.70;;;;;;5074294;28;20443;-61
2022/08/03 09:02:35;;;;;;;1.93;1.60;;;26.30;49.40;;;;;;5074058;28;20489;-61
2022/08/03 09:05:01;;;;;;;2.10;1.90;;;26.40;48.90;;;;;;5074458;28;21007;-60
2022/08/03 09:07:27;;;;;;;3.80;2.23;;;26.50;48.70;;;;;;5074762;28;20428;-60
2022/08/03 09:09:53;;;;;;;2.43;1.87;;;26.60;48.10;;;;;;5072243;28;20178;-60
2022/08/03 09:12:19;;;;;;;1.80;1.70;;;26.70;47.10;;;;;;5073744;28;20447;-58
2022/08/03 09:14:45;;;;;;;2.80;2.13;;;26.80;47.10;;;;;;5073128;28;20431;-59
2022/08/03 09:17:10;;;;;;;11.73;3.03;;;26.90;47.50;;;;;;5068337;28;20829;-59
2022/08/03 09:19:36;;;;;;;3.93;2.67;;;26.90;47.50;;;;;;5075655;28;20169;-60
2022/08/03 09:22:16;;;;;;;3.73;2.00;;;27.00;46.70;;;;;;5074357;28;20585;-60
2022/08/03 09:24:57;;;;;;;1.87;1.77;;;27.10;46.80;;;;;;5072782;28;20277;-56
2022/08/03 09:27:23;;;;;;;4.73;2.17;;;27.20;44.50;;;;;;5071391;28;22027;-59
2022/08/03 09:29:50;;;;;;;21.90;3.33;;;27.30;44.00;;;;;;5073447;28;20378;-60
2022/08/03 09:32:20;;;;;;;7.30;2.00;;;27.40;44.10;;;;;;5067353;28;20288;-59
2022/08/03 09:34:51;;;;;;;2.40;1.73;;;27.50;44.90;;;;;;5073950;28;20180;-58
2022/08/03 09:37:19;;;;;;;17.20;2.93;;;27.60;44.50;;;;;;5070378;28;20178;-58
2022/08/03 09:39:46;;;;;;;10.60;2.37;;;27.70;44.20;;;;;;5071972;28;20181;-60
2022/08/03 09:42:16;;;;;;;2.20;2.00;;;27.80;44.40;;;;;;5073190;28;20197;-60
2022/08/03 09:44:47;;;;;;;1.57;1.40;;;27.90;44.30;;;;;;5073667;28;20209;-61
2022/08/03 09:47:15;;;;;;;12.20;2.60;;;28.00;43.90;;;;;;5069330;28;20177;-61
2022/08/03 09:49:42;;;;;;;4.30;2.07;;;28.20;44.30;;;;;;5076479;28;20178;-61
2022/08/03 09:52:17;;;;;;;2.20;2.00;;;28.30;44.30;;;;;;5072664;28;20657;-60
2022/08/03 09:54:49;;;;;;;9.93;2.50;;;28.30;43.90;;;;;;5075776;28;20180;-60
2022/08/03 09:57:22;;;;;;;10.30;2.10;;;28.40;43.20;;;;;;5073288;28;20178;-62
2022/08/03 09:59:48;;;;;;;4.00;1.80;;;28.50;42.90;;;;;;5074955;28;20312;-59
2022/08/03 10:02:25;;;;;;;2.67;2.10;;;28.60;43.20;;;;;;5072176;28;20720;-62
2022/08/03 10:04:53;;;;;;;5.80;1.80;;;28.70;43.40;;;;;;5078972;28;20357;-62
2022/08/03 10:07:20;;;;;;;1.80;1.70;;;28.80;42.70;;;;;;5070922;28;20212;-63
2022/08/03 10:10:00;;;;;;;2.22;1.90;;;28.80;42.40;;;;;;5070963;28;20165;-61
2022/08/03 10:12:26;;;;;;;2.15;1.85;;;28.90;43.30;;;;;;5073270;28;20197;-62
2022/08/03 10:14:54;;;;;;;2.55;2.10;;;28.90;41.60;;;;;;5074774;28;20181;-62
2022/08/03 10:17:20;;;;;;;2.22;1.85;;;28.80;41.80;;;;;;5070366;28;20185;-62
2022/08/03 10:19:47;;;;;;;2.35;2.15;;;28.80;43.20;;;;;;5075889;28;20193;-61
2022/08/03 10:22:18;;;;;;;1.90;1.70;;;29.00;42.80;;;;;;5075144;28;20221;-61
2022/08/03 10:24:58;;;;;;;4.40;2.10;;;29.10;42.50;;;;;;5078121;28;20193;-59
2022/08/03 10:27:26;;;;;;;2.17;1.98;;;29.20;41.70;;;;;;5078484;28;20265;-60
2022/08/03 10:29:55;;;;;;;6.20;1.92;;;29.30;42.10;;;;;;5076141;28;20166;-59
2022/08/03 10:32:41;;;;;;;2.25;1.60;;;29.50;41.80;;;;;;5072541;28;20197;-59
2022/08/03 10:35:08;;;;;;;2.45;1.63;;;29.70;41.80;;;;;;5071862;28;20643;-56
2022/08/03 10:37:42;;;;;;;5.63;2.25;;;29.80;42.10;;;;;;5074448;28;20197;-54
2022/08/03 10:40:12;;;;;;;5.60;2.10;;;30.00;42.00;;;;;;5074819;28;20211;-55
2022/08/03 10:42:41;;;;;;;5.05;1.90;;;30.10;41.10;;;;;;5077694;28;20197;-56
2022/08/03 10:45:19;;;;;;;4.68;1.98;;;30.20;40.80;;;;;;5075992;28;20193;-56
2022/08/03 10:47:47;;;;;;;3.10;2.10;;;30.30;40.80;;;;;;5076525;28;20174;-55
2022/08/03 10:50:13;;;;;;;2.13;1.70;;;30.40;40.20;;;;;;5078032;28;20170;-56
2022/08/03 10:52:57;;;;;;;5.70;2.72;;;30.50;40.40;;;;;;5071166;28;20203;-55
2022/08/03 10:58:37;;;;;;;3.55;2.20;;;30.70;39.30;;;;;;5077627;28;20190;-54
2022/08/03 11:01:05;;;;;;;1.90;1.80;;;30.90;40.00;;;;;;5072875;28;20198;-54
2022/08/03 11:03:31;;;;;;;2.45;1.65;;;31.00;39.20;;;;;;5074539;28;20201;-54
2022/08/03 11:06:18;;;;;;;3.03;1.83;;;31.00;38.90;;;;;;5078178;28;20177;-55
2022/08/03 11:08:48;;;;;;;2.00;1.90;;;31.00;38.00;;;;;;5078513;28;20191;-55
2022/08/03 11:11:17;;;;;;;2.05;1.95;;;30.90;37.80;;;;;;5071111;28;20197;-55
2022/08/03 11:14:03;;;;;;;2.38;2.17;;;30.90;38.40;;;;;;5075685;28;20187;-55
2022/08/03 11:16:33;;;;;;;2.20;2.10;;;30.80;37.50;;;;;;5069093;28;20192;-55
2022/08/03 11:19:01;;;;;;;2.65;1.90;;;30.80;38.00;;;;;;5076736;28;20205;-55
2022/08/03 11:21:51;;;;;;;1.77;1.50;;;30.80;38.00;;;;;;5076796;28;20345;-60
2022/08/03 11:24:35;;;;;;;4.28;1.70;;;30.90;38.20;;;;;;5075096;28;20212;-60
2022/08/03 11:27:13;;;;;;;8.25;2.20;;;31.10;38.30;;;;;;5072862;28;20188;-61
2022/08/03 11:30:08;;;;;;;2.28;2.15;;;31.40;38.10;;;;;;5077136;28;20185;-60
2022/08/03 11:32:36;;;;;;;22.10;3.90;;;31.60;37.70;;;;;;5078599;28;20594;-60
2022/08/03 11:35:18;;;;;;;4.07;2.03;;;31.70;37.70;;;;;;5076588;28;20185;-61
2022/08/03 11:37:56;;;;;;;8.48;2.50;;;31.90;37.00;;;;;;5074756;28;20192;-59
2022/08/03 11:40:39;;;;;;;4.30;2.00;;;31.90;36.60;;;;;;5078068;28;20178;-59
2022/08/03 11:43:07;;;;;;;4.20;1.92;;;31.90;36.90;;;;;;5075200;28;20237;-59
2022/08/03 11:45:34;;;;;;;4.82;2.35;;;31.80;36.00;;;;;;5078311;28;20231;-60
2022/08/03 11:48:13;;;;;;;2.00;1.90;;;31.80;36.50;;;;;;5081217;28;20162;-59
2022/08/03 11:50:39;;;;;;;4.03;1.90;;;31.80;36.90;;;;;;5078951;28;20224;-61
2022/08/03 11:53:06;;;;;;;8.00;2.60;;;32.00;37.40;;;;;;5070033;28;20204;-59
2022/08/03 11:55:32;;;;;;;1.90;1.80;;;32.20;37.00;;;;;;5071479;28;22174;-56
2022/08/03 11:57:58;;;;;;;3.45;2.10;;;32.20;36.40;;;;;;5077371;28;20272;-59
2022/08/03 12:00:30;;;;;;;7.18;2.17;;;32.30;36.20;;;;;;5074091;28;20685;-57
2022/08/03 12:03:00;;;;;;;2.05;1.70;;;32.20;36.70;;;;;;5075197;28;20232;-57
2022/08/03 12:05:52;;;;;;;2.38;1.95;;;32.40;36.60;;;;;;5074012;28;20302;-57
2022/08/03 12:08:30;;;;;;;2.08;1.60;;;32.60;36.30;;;;;;5073813;28;20182;-58
2022/08/03 12:10:58;;;;;;;1.88;1.77;;;32.70;35.90;;;;;;5073677;28;20195;-58
2022/08/03 12:13:25;;;;;;;25.50;4.20;;;32.80;35.80;;;;;;5078413;28;20269;-57
2022/08/03 12:15:56;;;;;;;4.93;1.70;;;33.00;35.60;;;;;;5073159;28;20215;-59
2022/08/03 12:18:22;;;;;;;9.23;2.40;;;33.20;35.50;;;;;;5079934;28;20266;-58
2022/08/03 12:20:50;;;;;;;5.43;2.00;;;33.30;34.80;;;;;;5090427;28;20390;-57
2022/08/03 12:23:16;;;;;;;1.73;1.58;;;33.40;34.30;;;;;;5087180;28;20223;-57
2022/08/03 12:25:44;;;;;;;7.82;2.13;;;33.50;33.80;;;;;;5089142;28;20221;-58
2022/08/03 12:28:23;;;;;;;3.10;1.83;;;33.40;34.30;;;;;;5071076;28;20181;-58
2022/08/03 12:30:50;;;;;;;2.10;1.63;;;33.60;34.20;;;;;;5077791;28;20265;-59
2022/08/03 12:33:19;;;;;;;3.33;2.00;;;33.70;33.70;;;;;;5090019;28;20694;-58
2022/08/03 12:36:00;;;;;;;1.80;1.60;;;33.80;33.80;;;;;;5083060;28;20676;-58
2022/08/03 12:38:26;;;;;;;4.00;2.15;;;33.90;33.70;;;;;;5080772;28;20177;-59
2022/08/03 12:40:56;;;;;;;1.88;1.77;;;34.00;34.00;;;;;;5086616;28;20197;-58
2022/08/03 12:43:22;;;;;;;3.55;1.50;;;34.20;32.80;;;;;;5084646;28;20295;-58
2022/08/03 12:45:48;;;;;;;3.00;1.83;;;34.10;32.50;;;;;;5082906;28;20292;-57
2022/08/03 12:48:13;;;;;;;1.75;1.50;;;34.10;33.30;;;;;;5069873;28;20188;-57
2022/08/03 12:50:40;;;;;;;5.45;1.67;;;34.20;33.10;;;;;;5087306;28;20240;-58
2022/08/03 12:53:07;;;;;;;1.80;1.70;;;34.30;33.20;;;;;;5086457;28;20178;-57
2022/08/03 12:55:34;;;;;;;4.05;2.25;;;34.40;32.40;;;;;;5069629;28;20174;-56
2022/08/03 12:58:01;;;;;;;1.58;1.48;;;34.60;33.00;;;;;;5074726;28;20169;-57
2022/08/03 13:00:26;;;;;;;2.20;1.80;;;34.80;32.70;;;;;;5084555;28;20183;-58
2022/08/03 13:03:07;;;;;;;5.78;2.08;;;34.90;32.20;;;;;;5084268;28;20178;-57